Terminal Aerodrome Forecast
Issued by NWS

Home | Current Version | Previous Version | Text Only | Print | Product List | Glossary On
Versions: 1 2 3 4 5 6 7 8 9 10 11 12 13 14
000
FTUS43 KIND 241700
TAFHUF
TAF
KHUF 241725Z 2418/2518 17011KT P6SM SCT060 BKN130
     FM250000 16014KT P6SM BKN040 OVC100
     FM250700 19013KT P6SM -SHRA OVC025
     FM251500 20012G21KT P6SM BKN025=

USA.gov is the U.S. government's official web portal to all federal, state and local government web resources and services.